sensor_id;sensor_type;location;lat;lon;timestamp;P1;durP1;ratioP1;P2;durP2;ratioP2
25567;SDS011;13455;51.480;7.594;2023-11-19T00:02:20;2.08;;;0.70;;
25567;SDS011;13455;51.480;7.594;2023-11-19T00:04:46;1.65;;;0.70;;
25567;SDS011;13455;51.480;7.594;2023-11-19T00:07:12;1.20;;;0.70;;
25567;SDS011;13455;51.480;7.594;2023-11-19T00:09:39;1.52;;;0.60;;
25567;SDS011;13455;51.480;7.594;2023-11-19T00:12:05;1.75;;;0.70;;
25567;SDS011;13455;51.480;7.594;2023-11-19T00:14:31;2.30;;;0.63;;
25567;SDS011;13455;51.480;7.594;2023-11-19T00:16:57;1.50;;;0.63;;
25567;SDS011;13455;51.480;7.594;2023-11-19T00:19:23;2.20;;;0.70;;
25567;SDS011;13455;51.480;7.594;2023-11-19T00:21:49;1.70;;;0.70;;
25567;SDS011;13455;51.480;7.594;2023-11-19T00:24:14;1.20;;;0.70;;
25567;SDS011;13455;51.480;7.594;2023-11-19T00:26:43;0.90;;;0.60;;
25567;SDS011;13455;51.480;7.594;2023-11-19T00:29:08;1.40;;;0.70;;
25567;SDS011;13455;51.480;7.594;2023-11-19T00:31:34;0.90;;;0.60;;
25567;SDS011;13455;51.480;7.594;2023-11-19T00:34:00;1.20;;;0.63;;
25567;SDS011;13455;51.480;7.594;2023-11-19T00:36:27;1.10;;;0.70;;
25567;SDS011;13455;51.480;7.594;2023-11-19T00:38:53;0.83;;;0.63;;
25567;SDS011;13455;51.480;7.594;2023-11-19T00:41:18;1.20;;;0.73;;
25567;SDS011;13455;51.480;7.594;2023-11-19T00:43:44;1.70;;;0.80;;
25567;SDS011;13455;51.480;7.594;2023-11-19T00:46:10;1.55;;;0.88;;
25567;SDS011;13455;51.480;7.594;2023-11-19T00:48:36;2.42;;;1.00;;
25567;SDS011;13455;51.480;7.594;2023-11-19T00:51:02;1.80;;;0.80;;
25567;SDS011;13455;51.480;7.594;2023-11-19T00:53:29;1.60;;;0.88;;
25567;SDS011;13455;51.480;7.594;2023-11-19T00:55:55;3.60;;;1.25;;
25567;SDS011;13455;51.480;7.594;2023-11-19T00:58:20;2.40;;;1.40;;
25567;SDS011;13455;51.480;7.594;2023-11-19T01:00:46;2.80;;;1.40;;
25567;SDS011;13455;51.480;7.594;2023-11-19T01:03:12;3.63;;;1.50;;
25567;SDS011;13455;51.480;7.594;2023-11-19T01:05:37;3.27;;;1.60;;
25567;SDS011;13455;51.480;7.594;2023-11-19T01:08:04;6.45;;;1.80;;
25567;SDS011;13455;51.480;7.594;2023-11-19T01:10:30;3.60;;;2.00;;
25567;SDS011;13455;51.480;7.594;2023-11-19T01:12:56;3.95;;;1.80;;
25567;SDS011;13455;51.480;7.594;2023-11-19T01:15:22;3.08;;;1.90;;
25567;SDS011;13455;51.480;7.594;2023-11-19T01:17:48;3.80;;;1.70;;
25567;SDS011;13455;51.480;7.594;2023-11-19T01:20:13;2.47;;;1.80;;
25567;SDS011;13455;51.480;7.594;2023-11-19T01:22:39;3.92;;;1.80;;
25567;SDS011;13455;51.480;7.594;2023-11-19T01:25:05;4.35;;;2.25;;
25567;SDS011;13455;51.480;7.594;2023-11-19T01:27:32;4.10;;;2.10;;
25567;SDS011;13455;51.480;7.594;2023-11-19T01:29:59;3.60;;;2.17;;
25567;SDS011;13455;51.480;7.594;2023-11-19T01:32:27;3.22;;;2.22;;
25567;SDS011;13455;51.480;7.594;2023-11-19T01:34:52;3.23;;;2.23;;
25567;SDS011;13455;51.480;7.594;2023-11-19T01:37:18;3.78;;;2.10;;
25567;SDS011;13455;51.480;7.594;2023-11-19T01:39:44;4.18;;;2.40;;
25567;SDS011;13455;51.480;7.594;2023-11-19T01:42:10;4.53;;;2.60;;
25567;SDS011;13455;51.480;7.594;2023-11-19T01:44:37;3.95;;;2.58;;
25567;SDS011;13455;51.480;7.594;2023-11-19T01:47:03;4.50;;;2.38;;
25567;SDS011;13455;51.480;7.594;2023-11-19T01:49:29;3.20;;;2.40;;
25567;SDS011;13455;51.480;7.594;2023-11-19T01:51:57;2.40;;;2.20;;
25567;SDS011;13455;51.480;7.594;2023-11-19T01:54:23;2.75;;;2.30;;
25567;SDS011;13455;51.480;7.594;2023-11-19T01:56:49;4.30;;;2.30;;
25567;SDS011;13455;51.480;7.594;2023-11-19T01:59:15;2.90;;;2.20;;
25567;SDS011;13455;51.480;7.594;2023-11-19T02:01:41;4.20;;;2.10;;
25567;SDS011;13455;51.480;7.594;2023-11-19T02:04:07;3.97;;;2.40;;
25567;SDS011;13455;51.480;7.594;2023-11-19T02:06:34;2.67;;;2.10;;
25567;SDS011;13455;51.480;7.594;2023-11-19T02:09:08;4.87;;;2.60;;
25567;SDS011;13455;51.480;7.594;2023-11-19T02:11:34;4.07;;;2.63;;
25567;SDS011;13455;51.480;7.594;2023-11-19T02:14:00;3.75;;;2.60;;
25567;SDS011;13455;51.480;7.594;2023-11-19T02:16:28;3.60;;;2.50;;
25567;SDS011;13455;51.480;7.594;2023-11-19T02:18:54;4.60;;;2.50;;
25567;SDS011;13455;51.480;7.594;2023-11-19T02:21:19;3.70;;;2.20;;
25567;SDS011;13455;51.480;7.594;2023-11-19T02:23:45;2.60;;;2.10;;
25567;SDS011;13455;51.480;7.594;2023-11-19T02:29:00;3.17;;;2.20;;
25567;SDS011;13455;51.480;7.594;2023-11-19T02:31:27;2.60;;;2.10;;
25567;SDS011;13455;51.480;7.594;2023-11-19T02:33:53;4.07;;;2.10;;
25567;SDS011;13455;51.480;7.594;2023-11-19T02:36:20;4.00;;;2.30;;
25567;SDS011;13455;51.480;7.594;2023-11-19T02:38:46;4.13;;;2.10;;
25567;SDS011;13455;51.480;7.594;2023-11-19T02:41:13;5.57;;;2.30;;
25567;SDS011;13455;51.480;7.594;2023-11-19T02:43:39;4.05;;;2.30;;
25567;SDS011;13455;51.480;7.594;2023-11-19T02:46:05;3.80;;;2.10;;
25567;SDS011;13455;51.480;7.594;2023-11-19T02:48:32;4.30;;;2.00;;
25567;SDS011;13455;51.480;7.594;2023-11-19T02:51:00;6.00;;;2.10;;
25567;SDS011;13455;51.480;7.594;2023-11-19T02:53:26;5.60;;;1.88;;
25567;SDS011;13455;51.480;7.594;2023-11-19T02:55:53;6.38;;;1.92;;
25567;SDS011;13455;51.480;7.594;2023-11-19T02:58:26;6.00;;;1.88;;
25567;SDS011;13455;51.480;7.594;2023-11-19T03:00:55;6.88;;;1.90;;
25567;SDS011;13455;51.480;7.594;2023-11-19T03:03:24;8.38;;;2.03;;
25567;SDS011;13455;51.480;7.594;2023-11-19T03:05:55;9.35;;;2.17;;
25567;SDS011;13455;51.480;7.594;2023-11-19T03:08:22;9.18;;;2.10;;
25567;SDS011;13455;51.480;7.594;2023-11-19T03:10:48;6.97;;;1.83;;
25567;SDS011;13455;51.480;7.594;2023-11-19T03:13:14;8.85;;;1.98;;
25567;SDS011;13455;51.480;7.594;2023-11-19T03:15:40;10.32;;;2.10;;
25567;SDS011;13455;51.480;7.594;2023-11-19T03:18:06;8.57;;;2.00;;
25567;SDS011;13455;51.480;7.594;2023-11-19T03:20:32;10.68;;;2.60;;
25567;SDS011;13455;51.480;7.594;2023-11-19T03:22:58;10.20;;;2.20;;
25567;SDS011;13455;51.480;7.594;2023-11-19T03:25:25;12.15;;;2.30;;
25567;SDS011;13455;51.480;7.594;2023-11-19T03:27:58;12.73;;;2.53;;
25567;SDS011;13455;51.480;7.594;2023-11-19T03:30:28;13.38;;;2.35;;
25567;SDS011;13455;51.480;7.594;2023-11-19T03:32:57;13.32;;;2.20;;
25567;SDS011;13455;51.480;7.594;2023-11-19T03:35:23;13.50;;;2.40;;
25567;SDS011;13455;51.480;7.594;2023-11-19T03:37:50;12.23;;;2.30;;
25567;SDS011;13455;51.480;7.594;2023-11-19T03:40:16;9.45;;;2.10;;
25567;SDS011;13455;51.480;7.594;2023-11-19T03:42:42;13.63;;;2.60;;
25567;SDS011;13455;51.480;7.594;2023-11-19T03:45:08;14.27;;;2.65;;
25567;SDS011;13455;51.480;7.594;2023-11-19T03:47:34;11.63;;;2.50;;
25567;SDS011;13455;51.480;7.594;2023-11-19T03:50:00;13.25;;;2.63;;
25567;SDS011;13455;51.480;7.594;2023-11-19T03:52:27;14.82;;;2.83;;
25567;SDS011;13455;51.480;7.594;2023-11-19T03:54:53;12.00;;;2.87;;
25567;SDS011;13455;51.480;7.594;2023-11-19T03:57:20;15.30;;;2.95;;
25567;SDS011;13455;51.480;7.594;2023-11-19T03:59:46;11.60;;;2.67;;
25567;SDS011;13455;51.480;7.594;2023-11-19T04:02:11;14.38;;;2.60;;
25567;SDS011;13455;51.480;7.594;2023-11-19T04:04:37;14.20;;;2.53;;
25567;SDS011;13455;51.480;7.594;2023-11-19T04:07:04;14.87;;;2.80;;
25567;SDS011;13455;51.480;7.594;2023-11-19T04:09:30;15.15;;;2.67;;
25567;SDS011;13455;51.480;7.594;2023-11-19T04:11:56;14.38;;;2.78;;
25567;SDS011;13455;51.480;7.594;2023-11-19T04:14:22;17.40;;;2.95;;
25567;SDS011;13455;51.480;7.594;2023-11-19T04:16:48;16.83;;;3.28;;
25567;SDS011;13455;51.480;7.594;2023-11-19T04:19:14;15.38;;;3.30;;
25567;SDS011;13455;51.480;7.594;2023-11-19T04:21:39;19.23;;;3.60;;
25567;SDS011;13455;51.480;7.594;2023-11-19T04:24:06;20.38;;;3.10;;
25567;SDS011;13455;51.480;7.594;2023-11-19T04:26:32;16.10;;;3.25;;
25567;SDS011;13455;51.480;7.594;2023-11-19T04:28:59;15.98;;;3.10;;
25567;SDS011;13455;51.480;7.594;2023-11-19T04:31:28;16.60;;;3.30;;
25567;SDS011;13455;51.480;7.594;2023-11-19T04:33:56;19.60;;;3.20;;
25567;SDS011;13455;51.480;7.594;2023-11-19T04:36:22;17.67;;;3.13;;
25567;SDS011;13455;51.480;7.594;2023-11-19T04:38:49;19.38;;;2.95;;
25567;SDS011;13455;51.480;7.594;2023-11-19T04:41:15;18.30;;;3.05;;
25567;SDS011;13455;51.480;7.594;2023-11-19T04:43:41;20.63;;;3.20;;
25567;SDS011;13455;51.480;7.594;2023-11-19T04:46:07;16.77;;;3.00;;
25567;SDS011;13455;51.480;7.594;2023-11-19T04:48:34;17.65;;;3.00;;
25567;SDS011;13455;51.480;7.594;2023-11-19T04:51:00;16.67;;;3.00;;
25567;SDS011;13455;51.480;7.594;2023-11-19T04:53:25;21.17;;;3.37;;
25567;SDS011;13455;51.480;7.594;2023-11-19T04:55:51;18.33;;;3.23;;
25567;SDS011;13455;51.480;7.594;2023-11-19T04:58:17;19.23;;;3.25;;
25567;SDS011;13455;51.480;7.594;2023-11-19T05:00:42;18.23;;;3.00;;
25567;SDS011;13455;51.480;7.594;2023-11-19T05:03:08;19.88;;;3.20;;
25567;SDS011;13455;51.480;7.594;2023-11-19T05:05:33;21.70;;;3.53;;
25567;SDS011;13455;51.480;7.594;2023-11-19T05:07:59;22.50;;;3.40;;
25567;SDS011;13455;51.480;7.594;2023-11-19T05:10:24;21.57;;;3.47;;
25567;SDS011;13455;51.480;7.594;2023-11-19T05:12:50;23.80;;;3.60;;
25567;SDS011;13455;51.480;7.594;2023-11-19T05:15:16;23.33;;;3.57;;
25567;SDS011;13455;51.480;7.594;2023-11-19T05:17:42;22.70;;;3.85;;
25567;SDS011;13455;51.480;7.594;2023-11-19T05:20:10;21.03;;;3.73;;
25567;SDS011;13455;51.480;7.594;2023-11-19T05:22:41;25.77;;;4.15;;
25567;SDS011;13455;51.480;7.594;2023-11-19T05:25:08;27.02;;;4.45;;
25567;SDS011;13455;51.480;7.594;2023-11-19T05:27:37;26.00;;;3.93;;
25567;SDS011;13455;51.480;7.594;2023-11-19T05:30:04;22.25;;;3.70;;
25567;SDS011;13455;51.480;7.594;2023-11-19T05:32:35;18.73;;;3.63;;
25567;SDS011;13455;51.480;7.594;2023-11-19T05:35:01;20.65;;;3.97;;
25567;SDS011;13455;51.480;7.594;2023-11-19T05:37:27;23.73;;;4.00;;
25567;SDS011;13455;51.480;7.594;2023-11-19T05:39:53;26.65;;;3.80;;
25567;SDS011;13455;51.480;7.594;2023-11-19T05:42:19;26.83;;;3.92;;
25567;SDS011;13455;51.480;7.594;2023-11-19T05:44:45;24.87;;;3.87;;
25567;SDS011;13455;51.480;7.594;2023-11-19T05:47:11;30.25;;;4.05;;
25567;SDS011;13455;51.480;7.594;2023-11-19T05:49:37;22.35;;;4.13;;
25567;SDS011;13455;51.480;7.594;2023-11-19T05:52:03;23.38;;;4.10;;
25567;SDS011;13455;51.480;7.594;2023-11-19T05:54:32;25.17;;;4.22;;
25567;SDS011;13455;51.480;7.594;2023-11-19T05:57:03;25.10;;;4.15;;
25567;SDS011;13455;51.480;7.594;2023-11-19T05:59:34;25.08;;;4.28;;
25567;SDS011;13455;51.480;7.594;2023-11-19T06:02:01;27.02;;;4.20;;
25567;SDS011;13455;51.480;7.594;2023-11-19T06:04:27;29.25;;;4.55;;
25567;SDS011;13455;51.480;7.594;2023-11-19T06:06:53;25.90;;;4.13;;
25567;SDS011;13455;51.480;7.594;2023-11-19T06:09:19;24.35;;;3.70;;
25567;SDS011;13455;51.480;7.594;2023-11-19T06:11:46;26.70;;;4.25;;
25567;SDS011;13455;51.480;7.594;2023-11-19T06:14:12;23.92;;;3.97;;
25567;SDS011;13455;51.480;7.594;2023-11-19T06:16:37;28.67;;;4.03;;
25567;SDS011;13455;51.480;7.594;2023-11-19T06:19:04;27.00;;;4.15;;
25567;SDS011;13455;51.480;7.594;2023-11-19T06:21:30;22.47;;;4.00;;
25567;SDS011;13455;51.480;7.594;2023-11-19T06:23:56;22.77;;;3.80;;
25567;SDS011;13455;51.480;7.594;2023-11-19T06:26:21;24.00;;;4.15;;
25567;SDS011;13455;51.480;7.594;2023-11-19T06:28:47;26.70;;;4.28;;
25567;SDS011;13455;51.480;7.594;2023-11-19T06:31:13;22.80;;;3.95;;
25567;SDS011;13455;51.480;7.594;2023-11-19T06:33:41;24.15;;;3.95;;
25567;SDS011;13455;51.480;7.594;2023-11-19T06:36:07;28.50;;;4.18;;
25567;SDS011;13455;51.480;7.594;2023-11-19T06:38:34;26.90;;;4.60;;
25567;SDS011;13455;51.480;7.594;2023-11-19T06:41:00;28.60;;;4.30;;
25567;SDS011;13455;51.480;7.594;2023-11-19T06:43:26;25.70;;;4.50;;
25567;SDS011;13455;51.480;7.594;2023-11-19T06:45:52;27.67;;;3.87;;
25567;SDS011;13455;51.480;7.594;2023-11-19T06:48:18;22.05;;;3.97;;
25567;SDS011;13455;51.480;7.594;2023-11-19T06:50:44;24.55;;;4.28;;
25567;SDS011;13455;51.480;7.594;2023-11-19T06:53:10;25.90;;;4.30;;
25567;SDS011;13455;51.480;7.594;2023-11-19T06:55:35;25.40;;;4.40;;
25567;SDS011;13455;51.480;7.594;2023-11-19T06:58:01;26.00;;;3.97;;
25567;SDS011;13455;51.480;7.594;2023-11-19T07:00:28;23.42;;;4.28;;
25567;SDS011;13455;51.480;7.594;2023-11-19T07:02:54;26.60;;;4.10;;
25567;SDS011;13455;51.480;7.594;2023-11-19T07:05:20;21.80;;;3.70;;
25567;SDS011;13455;51.480;7.594;2023-11-19T07:07:46;23.63;;;4.13;;
25567;SDS011;13455;51.480;7.594;2023-11-19T07:10:11;26.43;;;4.17;;
25567;SDS011;13455;51.480;7.594;2023-11-19T07:12:37;27.45;;;4.90;;
25567;SDS011;13455;51.480;7.594;2023-11-19T07:15:03;24.27;;;4.00;;
25567;SDS011;13455;51.480;7.594;2023-11-19T07:17:30;23.75;;;3.83;;
25567;SDS011;13455;51.480;7.594;2023-11-19T07:19:56;22.88;;;4.03;;
25567;SDS011;13455;51.480;7.594;2023-11-19T07:22:24;24.65;;;4.00;;
25567;SDS011;13455;51.480;7.594;2023-11-19T07:24:50;25.63;;;4.17;;
25567;SDS011;13455;51.480;7.594;2023-11-19T07:27:16;25.87;;;4.20;;
25567;SDS011;13455;51.480;7.594;2023-11-19T07:29:43;23.93;;;4.00;;
25567;SDS011;13455;51.480;7.594;2023-11-19T07:32:09;23.43;;;4.20;;
25567;SDS011;13455;51.480;7.594;2023-11-19T07:34:35;27.03;;;4.50;;
25567;SDS011;13455;51.480;7.594;2023-11-19T07:37:01;23.63;;;4.10;;
25567;SDS011;13455;51.480;7.594;2023-11-19T07:39:27;23.13;;;4.03;;
25567;SDS011;13455;51.480;7.594;2023-11-19T07:41:53;23.08;;;3.92;;
25567;SDS011;13455;51.480;7.594;2023-11-19T07:44:20;28.30;;;4.45;;
25567;SDS011;13455;51.480;7.594;2023-11-19T07:46:46;21.60;;;3.57;;
25567;SDS011;13455;51.480;7.594;2023-11-19T07:49:13;24.60;;;4.10;;
25567;SDS011;13455;51.480;7.594;2023-11-19T07:51:38;27.73;;;4.30;;
25567;SDS011;13455;51.480;7.594;2023-11-19T07:54:04;27.02;;;5.20;;
25567;SDS011;13455;51.480;7.594;2023-11-19T07:56:30;28.85;;;4.25;;
25567;SDS011;13455;51.480;7.594;2023-11-19T07:59:02;23.83;;;4.00;;
25567;SDS011;13455;51.480;7.594;2023-11-19T08:01:28;25.35;;;4.03;;
25567;SDS011;13455;51.480;7.594;2023-11-19T08:03:53;27.67;;;4.15;;
25567;SDS011;13455;51.480;7.594;2023-11-19T08:06:19;23.02;;;4.00;;
25567;SDS011;13455;51.480;7.594;2023-11-19T08:08:45;26.77;;;4.38;;
25567;SDS011;13455;51.480;7.594;2023-11-19T08:11:12;26.20;;;4.10;;
25567;SDS011;13455;51.480;7.594;2023-11-19T08:13:38;25.65;;;4.07;;
25567;SDS011;13455;51.480;7.594;2023-11-19T08:16:04;25.33;;;4.30;;
25567;SDS011;13455;51.480;7.594;2023-11-19T08:18:30;25.10;;;4.30;;
25567;SDS011;13455;51.480;7.594;2023-11-19T08:20:56;28.20;;;4.30;;
25567;SDS011;13455;51.480;7.594;2023-11-19T08:23:23;24.98;;;4.32;;
25567;SDS011;13455;51.480;7.594;2023-11-19T08:25:50;30.80;;;4.20;;
25567;SDS011;13455;51.480;7.594;2023-11-19T08:28:16;22.35;;;4.00;;
25567;SDS011;13455;51.480;7.594;2023-11-19T08:30:41;28.47;;;4.43;;
25567;SDS011;13455;51.480;7.594;2023-11-19T08:33:09;28.85;;;4.47;;
25567;SDS011;13455;51.480;7.594;2023-11-19T08:35:34;25.92;;;4.20;;
25567;SDS011;13455;51.480;7.594;2023-11-19T08:38:00;26.38;;;4.25;;
25567;SDS011;13455;51.480;7.594;2023-11-19T08:40:26;28.85;;;4.65;;
25567;SDS011;13455;51.480;7.594;2023-11-19T08:42:53;27.75;;;4.18;;
25567;SDS011;13455;51.480;7.594;2023-11-19T08:45:18;30.10;;;4.85;;
25567;SDS011;13455;51.480;7.594;2023-11-19T08:47:44;30.60;;;4.57;;
25567;SDS011;13455;51.480;7.594;2023-11-19T08:50:10;28.13;;;4.63;;
25567;SDS011;13455;51.480;7.594;2023-11-19T08:52:36;26.25;;;4.13;;
25567;SDS011;13455;51.480;7.594;2023-11-19T08:55:01;27.08;;;4.10;;
25567;SDS011;13455;51.480;7.594;2023-11-19T08:57:28;29.08;;;4.95;;
25567;SDS011;13455;51.480;7.594;2023-11-19T08:59:53;27.90;;;4.53;;
25567;SDS011;13455;51.480;7.594;2023-11-19T09:02:19;29.43;;;5.03;;
25567;SDS011;13455;51.480;7.594;2023-11-19T09:04:45;31.60;;;4.80;;
25567;SDS011;13455;51.480;7.594;2023-11-19T09:07:10;30.60;;;4.75;;
25567;SDS011;13455;51.480;7.594;2023-11-19T09:09:36;29.20;;;4.57;;
25567;SDS011;13455;51.480;7.594;2023-11-19T09:12:02;28.77;;;5.07;;
25567;SDS011;13455;51.480;7.594;2023-11-19T09:14:28;29.60;;;4.60;;
25567;SDS011;13455;51.480;7.594;2023-11-19T09:16:55;29.00;;;4.63;;
25567;SDS011;13455;51.480;7.594;2023-11-19T09:19:21;30.13;;;4.70;;
25567;SDS011;13455;51.480;7.594;2023-11-19T09:21:46;26.80;;;4.60;;
25567;SDS011;13455;51.480;7.594;2023-11-19T09:24:13;33.83;;;5.30;;
25567;SDS011;13455;51.480;7.594;2023-11-19T09:26:38;32.08;;;5.00;;
25567;SDS011;13455;51.480;7.594;2023-11-19T09:29:06;26.13;;;4.57;;
25567;SDS011;13455;51.480;7.594;2023-11-19T09:31:32;25.02;;;4.47;;
25567;SDS011;13455;51.480;7.594;2023-11-19T09:33:58;33.47;;;4.90;;
25567;SDS011;13455;51.480;7.594;2023-11-19T09:36:24;27.33;;;4.68;;
25567;SDS011;13455;51.480;7.594;2023-11-19T09:38:49;25.73;;;4.30;;
25567;SDS011;13455;51.480;7.594;2023-11-19T09:41:15;24.90;;;4.73;;
25567;SDS011;13455;51.480;7.594;2023-11-19T09:43:41;31.75;;;4.80;;
25567;SDS011;13455;51.480;7.594;2023-11-19T09:46:11;30.80;;;4.50;;
25567;SDS011;13455;51.480;7.594;2023-11-19T09:48:38;27.53;;;5.00;;
25567;SDS011;13455;51.480;7.594;2023-11-19T09:51:08;30.10;;;4.85;;
25567;SDS011;13455;51.480;7.594;2023-11-19T09:53:35;26.83;;;4.70;;
25567;SDS011;13455;51.480;7.594;2023-11-19T09:56:06;27.55;;;4.65;;
25567;SDS011;13455;51.480;7.594;2023-11-19T09:58:35;32.50;;;4.70;;
25567;SDS011;13455;51.480;7.594;2023-11-19T10:01:02;27.92;;;4.80;;
25567;SDS011;13455;51.480;7.594;2023-11-19T10:03:32;24.15;;;4.25;;
25567;SDS011;13455;51.480;7.594;2023-11-19T10:06:00;29.60;;;4.73;;
25567;SDS011;13455;51.480;7.594;2023-11-19T10:08:27;27.85;;;5.18;;
25567;SDS011;13455;51.480;7.594;2023-11-19T10:10:53;31.80;;;5.13;;
25567;SDS011;13455;51.480;7.594;2023-11-19T10:13:18;26.80;;;4.45;;
25567;SDS011;13455;51.480;7.594;2023-11-19T10:15:44;29.30;;;5.20;;
25567;SDS011;13455;51.480;7.594;2023-11-19T10:18:10;25.83;;;4.35;;
25567;SDS011;13455;51.480;7.594;2023-11-19T10:20:36;25.03;;;4.50;;
25567;SDS011;13455;51.480;7.594;2023-11-19T10:23:02;30.73;;;4.80;;
25567;SDS011;13455;51.480;7.594;2023-11-19T10:25:28;24.27;;;4.47;;
25567;SDS011;13455;51.480;7.594;2023-11-19T10:27:55;25.90;;;4.03;;
25567;SDS011;13455;51.480;7.594;2023-11-19T10:30:22;26.75;;;4.82;;
25567;SDS011;13455;51.480;7.594;2023-11-19T10:33:04;28.42;;;4.63;;
25567;SDS011;13455;51.480;7.594;2023-11-19T10:35:32;28.63;;;4.90;;
25567;SDS011;13455;51.480;7.594;2023-11-19T10:37:59;25.45;;;4.25;;
25567;SDS011;13455;51.480;7.594;2023-11-19T10:40:37;27.42;;;4.40;;
25567;SDS011;13455;51.480;7.594;2023-11-19T10:43:04;26.83;;;4.65;;
25567;SDS011;13455;51.480;7.594;2023-11-19T10:45:31;24.08;;;4.15;;
25567;SDS011;13455;51.480;7.594;2023-11-19T10:47:58;27.52;;;4.40;;
25567;SDS011;13455;51.480;7.594;2023-11-19T10:50:24;27.27;;;4.55;;
25567;SDS011;13455;51.480;7.594;2023-11-19T10:52:51;25.63;;;4.05;;
25567;SDS011;13455;51.480;7.594;2023-11-19T10:55:25;29.48;;;4.80;;
25567;SDS011;13455;51.480;7.594;2023-11-19T10:57:59;28.67;;;4.72;;
25567;SDS011;13455;51.480;7.594;2023-11-19T11:00:25;28.65;;;4.97;;
25567;SDS011;13455;51.480;7.594;2023-11-19T11:02:55;28.38;;;4.40;;
25567;SDS011;13455;51.480;7.594;2023-11-19T11:05:26;26.17;;;4.53;;
25567;SDS011;13455;51.480;7.594;2023-11-19T11:07:52;30.02;;;4.63;;
25567;SDS011;13455;51.480;7.594;2023-11-19T11:10:20;31.27;;;5.00;;
25567;SDS011;13455;51.480;7.594;2023-11-19T11:12:51;24.65;;;4.00;;
25567;SDS011;13455;51.480;7.594;2023-11-19T11:15:24;25.60;;;4.67;;
25567;SDS011;13455;51.480;7.594;2023-11-19T11:17:54;29.80;;;4.78;;
25567;SDS011;13455;51.480;7.594;2023-11-19T11:20:29;26.73;;;4.50;;
25567;SDS011;13455;51.480;7.594;2023-11-19T11:28:20;31.05;;;4.65;;
25567;SDS011;13455;51.480;7.594;2023-11-19T11:31:00;26.05;;;4.43;;
25567;SDS011;13455;51.480;7.594;2023-11-19T11:36:23;23.65;;;4.28;;
25567;SDS011;13455;51.480;7.594;2023-11-19T11:38:50;30.27;;;4.88;;
25567;SDS011;13455;51.480;7.594;2023-11-19T11:41:25;26.83;;;4.53;;
25567;SDS011;13455;51.480;7.594;2023-11-19T11:43:52;25.15;;;4.25;;
25567;SDS011;13455;51.480;7.594;2023-11-19T11:49:01;26.65;;;4.35;;
25567;SDS011;13455;51.480;7.594;2023-11-19T12:02:05;24.67;;;4.43;;
25567;SDS011;13455;51.480;7.594;2023-11-19T12:04:34;24.73;;;4.03;;
25567;SDS011;13455;51.480;7.594;2023-11-19T12:07:06;21.17;;;4.00;;
25567;SDS011;13455;51.480;7.594;2023-11-19T12:09:39;23.30;;;3.83;;
25567;SDS011;13455;51.480;7.594;2023-11-19T12:12:22;24.27;;;4.28;;
25567;SDS011;13455;51.480;7.594;2023-11-19T12:22:48;19.92;;;3.63;;
25567;SDS011;13455;51.480;7.594;2023-11-19T12:25:14;22.10;;;3.90;;
25567;SDS011;13455;51.480;7.594;2023-11-19T12:27:42;22.35;;;3.60;;
25567;SDS011;13455;51.480;7.594;2023-11-19T12:30:11;21.80;;;3.67;;
25567;SDS011;13455;51.480;7.594;2023-11-19T12:32:40;19.08;;;3.72;;
25567;SDS011;13455;51.480;7.594;2023-11-19T12:35:07;20.60;;;3.67;;
25567;SDS011;13455;51.480;7.594;2023-11-19T12:37:42;21.55;;;3.97;;
25567;SDS011;13455;51.480;7.594;2023-11-19T12:40:16;21.52;;;3.47;;
25567;SDS011;13455;51.480;7.594;2023-11-19T12:42:44;24.55;;;4.00;;
25567;SDS011;13455;51.480;7.594;2023-11-19T12:45:10;19.20;;;3.50;;
25567;SDS011;13455;51.480;7.594;2023-11-19T12:47:36;21.23;;;3.57;;
25567;SDS011;13455;51.480;7.594;2023-11-19T12:50:02;22.40;;;3.83;;
25567;SDS011;13455;51.480;7.594;2023-11-19T12:52:29;18.80;;;3.90;;
25567;SDS011;13455;51.480;7.594;2023-11-19T12:54:55;20.35;;;3.53;;
25567;SDS011;13455;51.480;7.594;2023-11-19T12:57:35;19.63;;;3.53;;
25567;SDS011;13455;51.480;7.594;2023-11-19T13:00:07;18.90;;;3.20;;
25567;SDS011;13455;51.480;7.594;2023-11-19T13:02:55;22.33;;;3.75;;
25567;SDS011;13455;51.480;7.594;2023-11-19T13:05:26;20.35;;;3.60;;
25567;SDS011;13455;51.480;7.594;2023-11-19T13:07:58;20.95;;;3.63;;
25567;SDS011;13455;51.480;7.594;2023-11-19T13:10:28;22.08;;;3.58;;
25567;SDS011;13455;51.480;7.594;2023-11-19T13:13:04;18.77;;;3.63;;
25567;SDS011;13455;51.480;7.594;2023-11-19T13:15:31;19.00;;;3.45;;
25567;SDS011;13455;51.480;7.594;2023-11-19T13:17:58;19.08;;;3.50;;
25567;SDS011;13455;51.480;7.594;2023-11-19T13:20:24;18.25;;;3.58;;
25567;SDS011;13455;51.480;7.594;2023-11-19T13:25:31;23.55;;;3.78;;
25567;SDS011;13455;51.480;7.594;2023-11-19T13:27:57;19.60;;;3.70;;
25567;SDS011;13455;51.480;7.594;2023-11-19T13:30:23;17.10;;;3.30;;
25567;SDS011;13455;51.480;7.594;2023-11-19T13:32:50;22.63;;;3.67;;
25567;SDS011;13455;51.480;7.594;2023-11-19T13:35:17;19.25;;;3.50;;
25567;SDS011;13455;51.480;7.594;2023-11-19T13:37:43;21.48;;;4.28;;
25567;SDS011;13455;51.480;7.594;2023-11-19T13:40:10;16.52;;;3.33;;
25567;SDS011;13455;51.480;7.594;2023-11-19T13:42:39;15.43;;;3.15;;
25567;SDS011;13455;51.480;7.594;2023-11-19T13:45:14;16.38;;;3.17;;
25567;SDS011;13455;51.480;7.594;2023-11-19T13:47:41;20.55;;;3.13;;
25567;SDS011;13455;51.480;7.594;2023-11-19T13:50:09;15.10;;;2.80;;
25567;SDS011;13455;51.480;7.594;2023-11-19T13:52:36;17.35;;;2.97;;
25567;SDS011;13455;51.480;7.594;2023-11-19T13:55:06;13.93;;;2.70;;
25567;SDS011;13455;51.480;7.594;2023-11-19T13:57:33;13.13;;;2.47;;
25567;SDS011;13455;51.480;7.594;2023-11-19T13:59:59;16.20;;;2.78;;
25567;SDS011;13455;51.480;7.594;2023-11-19T14:02:27;15.50;;;2.60;;
25567;SDS011;13455;51.480;7.594;2023-11-19T14:04:53;15.95;;;2.72;;
25567;SDS011;13455;51.480;7.594;2023-11-19T14:07:18;17.48;;;2.75;;
25567;SDS011;13455;51.480;7.594;2023-11-19T14:09:44;13.88;;;2.58;;
25567;SDS011;13455;51.480;7.594;2023-11-19T14:12:10;18.13;;;3.00;;
25567;SDS011;13455;51.480;7.594;2023-11-19T14:14:37;16.77;;;3.30;;
25567;SDS011;13455;51.480;7.594;2023-11-19T14:17:04;15.55;;;3.00;;
25567;SDS011;13455;51.480;7.594;2023-11-19T14:19:30;16.02;;;3.17;;
25567;SDS011;13455;51.480;7.594;2023-11-19T14:21:55;17.60;;;3.13;;
25567;SDS011;13455;51.480;7.594;2023-11-19T14:24:21;18.97;;;3.10;;
25567;SDS011;13455;51.480;7.594;2023-11-19T14:26:47;16.40;;;2.90;;
25567;SDS011;13455;51.480;7.594;2023-11-19T14:29:14;16.17;;;3.20;;
25567;SDS011;13455;51.480;7.594;2023-11-19T14:31:40;18.60;;;3.35;;
25567;SDS011;13455;51.480;7.594;2023-11-19T14:34:06;21.23;;;3.88;;
25567;SDS011;13455;51.480;7.594;2023-11-19T14:36:32;18.25;;;2.97;;
25567;SDS011;13455;51.480;7.594;2023-11-19T14:38:57;17.27;;;3.22;;
25567;SDS011;13455;51.480;7.594;2023-11-19T14:41:23;17.52;;;3.25;;
25567;SDS011;13455;51.480;7.594;2023-11-19T14:43:49;20.55;;;3.30;;
25567;SDS011;13455;51.480;7.594;2023-11-19T14:46:15;16.23;;;3.00;;
25567;SDS011;13455;51.480;7.594;2023-11-19T14:48:41;16.80;;;3.30;;
25567;SDS011;13455;51.480;7.594;2023-11-19T14:51:06;18.27;;;3.42;;
25567;SDS011;13455;51.480;7.594;2023-11-19T14:53:32;20.10;;;3.13;;
25567;SDS011;13455;51.480;7.594;2023-11-19T14:55:58;18.53;;;3.27;;
25567;SDS011;13455;51.480;7.594;2023-11-19T14:58:23;20.70;;;3.20;;
25567;SDS011;13455;51.480;7.594;2023-11-19T15:00:51;16.95;;;3.00;;
25567;SDS011;13455;51.480;7.594;2023-11-19T15:03:16;17.60;;;2.90;;
25567;SDS011;13455;51.480;7.594;2023-11-19T15:05:44;16.45;;;3.13;;
25567;SDS011;13455;51.480;7.594;2023-11-19T15:08:11;18.55;;;3.20;;
25567;SDS011;13455;51.480;7.594;2023-11-19T15:10:37;15.20;;;3.00;;
25567;SDS011;13455;51.480;7.594;2023-11-19T15:13:02;18.03;;;3.10;;